SAS256 ENGM-ENBR
Flight info
| Callsign | SAS256 |
|---|---|
| Flight time | N/A |
| Altitude | 20000 |
| Route | ATLAP DCT AGEKU DCT PESUR |
| Aircraft | A359/H-SDE2E3GHIJ3J4J5LM1ORWXY/LB1D1 |
Departure
| Time | 2026-05-04 18:41 |
|---|---|
| Airport | Oslo-Gardermoen International Airport (ENGM) |
Arrival
| Time | N/A |
|---|---|
| Airport | Bergen Airport, Flesland (ENBR) |
| Time | Latitude | Longitude | Altitude | Speed | Heading |
|---|---|---|---|---|---|
| 2026-05-04 18:05 | 60.19418 | 11.10665 | 686 ft | 0 kts | 204° |
| 2026-05-04 18:23 | 60.19431 | 11.10676 | 678 ft | 3 kts | 204° |
| 2026-05-04 18:23 | 60.19447 | 11.10695 | 678 ft | 3 kts | 215° |
| 2026-05-04 18:23 | 60.19462 | 11.10721 | 686 ft | 3 kts | 240° |
| 2026-05-04 18:23 | 60.19471 | 11.10753 | 678 ft | 3 kts | 253° |
| 2026-05-04 18:24 | 60.19474 | 11.10789 | 678 ft | 2 kts | 267° |
| 2026-05-04 18:24 | 60.19475 | 11.10811 | 678 ft | 0 kts | 267° |
| 2026-05-04 18:29 | 60.19480 | 11.10799 | 678 ft | 3 kts | 308° |
| 2026-05-04 18:29 | 60.19506 | 11.10790 | 680 ft | 5 kts | 349° |
| 2026-05-04 18:29 | 60.19548 | 11.10756 | 680 ft | 7 kts | 325° |
| 2026-05-04 18:29 | 60.19565 | 11.10708 | 679 ft | 0 kts | 302° |
| 2026-05-04 18:30 | 60.19570 | 11.10693 | 680 ft | 4 kts | 302° |
| 2026-05-04 18:30 | 60.19597 | 11.10601 | 679 ft | 10 kts | 318° |
| 2026-05-04 18:30 | 60.19661 | 11.10595 | 686 ft | 0 kts | 12° |
| 2026-05-04 18:31 | 60.19664 | 11.10596 | 686 ft | 4 kts | 12° |
| 2026-05-04 18:31 | 60.19767 | 11.10652 | 680 ft | 27 kts | 16° |
| 2026-05-04 18:31 | 60.19865 | 11.10652 | 680 ft | 7 kts | 322° |
| 2026-05-04 18:32 | 60.19894 | 11.10560 | 680 ft | 9 kts | 292° |
| 2026-05-04 18:32 | 60.19919 | 11.10406 | 679 ft | 15 kts | 287° |
| 2026-05-04 18:32 | 60.19962 | 11.10113 | 684 ft | 29 kts | 284° |
| 2026-05-04 18:32 | 60.20004 | 11.09799 | 681 ft | 16 kts | 286° |
| 2026-05-04 18:33 | 60.20038 | 11.09579 | 679 ft | 17 kts | 287° |
| 2026-05-04 18:33 | 60.20074 | 11.09331 | 679 ft | 19 kts | 284° |
| 2026-05-04 18:33 | 60.20106 | 11.09080 | 680 ft | 6 kts | 285° |
| 2026-05-04 18:33 | 60.20107 | 11.09077 | 680 ft | 0 kts | 285° |
| 2026-05-04 18:34 | 60.20113 | 11.09028 | 677 ft | 12 kts | 285° |
| 2026-05-04 18:34 | 60.20156 | 11.08759 | 678 ft | 16 kts | 307° |
| 2026-05-04 18:34 | 60.20266 | 11.08763 | 677 ft | 21 kts | 43° |
| 2026-05-04 18:35 | 60.20428 | 11.08877 | 677 ft | 32 kts | 15° |
| 2026-05-04 18:35 | 60.20641 | 11.09061 | 678 ft | 22 kts | 68° |
| 2026-05-04 18:35 | 60.20721 | 11.09220 | 680 ft | 16 kts | 6° |
| 2026-05-04 18:35 | 60.20908 | 11.09322 | 677 ft | 35 kts | 17° |
| 2026-05-04 18:36 | 60.21148 | 11.09454 | 677 ft | 36 kts | 16° |
| 2026-05-04 18:36 | 60.21366 | 11.09588 | 678 ft | 21 kts | 15° |
| 2026-05-04 18:36 | 60.21510 | 11.09601 | 673 ft | 20 kts | 327° |
| 2026-05-04 18:36 | 60.21565 | 11.09393 | 676 ft | 12 kts | 285° |
| 2026-05-04 18:37 | 60.21567 | 11.09379 | 675 ft | 0 kts | 286° |
| 2026-05-04 18:39 | 60.21569 | 11.09367 | 679 ft | 7 kts | 286° |
| 2026-05-04 18:39 | 60.21572 | 11.09172 | 674 ft | 10 kts | 240° |
| 2026-05-04 18:39 | 60.21525 | 11.09115 | 675 ft | 8 kts | 196° |
| 2026-05-04 18:40 | 60.21510 | 11.09106 | 675 ft | 0 kts | 196° |
| 2026-05-04 18:40 | 60.21437 | 11.09061 | 676 ft | 41 kts | 197° |
| 2026-05-04 18:40 | 60.20922 | 11.08765 | 675 ft | 110 kts | 194° |
| 2026-05-04 18:40 | 60.20018 | 11.08241 | 892 ft | 147 kts | 200° |
| 2026-05-04 18:41 | 60.19011 | 11.07745 | 1601 ft | 149 kts | 200° |
| 2026-05-04 18:41 | 60.17995 | 11.07193 | 2204 ft | 159 kts | 204° |
| 2026-05-04 18:41 | 60.16907 | 11.06308 | 2633 ft | 179 kts | 214° |
| 2026-05-04 18:41 | 60.15842 | 11.04891 | 3194 ft | 189 kts | 225° |
| 2026-05-04 18:42 | 60.14984 | 11.02933 | 3869 ft | 186 kts | 247° |
| 2026-05-04 18:42 | 60.14649 | 11.00480 | 4699 ft | 185 kts | 259° |
| 2026-05-04 18:42 | 60.14337 | 10.97809 | 5135 ft | 210 kts | 256° |
| 2026-05-04 18:42 | 60.14015 | 10.94772 | 5614 ft | 232 kts | 264° |
| 2026-05-04 18:43 | 60.13912 | 10.91486 | 6443 ft | 239 kts | 268° |
| 2026-05-04 18:43 | 60.13843 | 10.88139 | 7397 ft | 241 kts | 268° |
| 2026-05-04 18:43 | 60.13763 | 10.84763 | 8433 ft | 243 kts | 268° |
| 2026-05-04 18:43 | 60.13788 | 10.81359 | 9505 ft | 246 kts | 271° |
| 2026-05-04 18:44 | 60.13866 | 10.77880 | 10289 ft | 257 kts | 272° |
| 2026-05-04 18:44 | 60.13935 | 10.75442 | 10588 ft | 271 kts | 273° |
| 2026-05-04 18:44 | 60.14114 | 10.70122 | 11226 ft | 298 kts | 274° |
| 2026-05-04 18:44 | 60.14262 | 10.66003 | 12130 ft | 301 kts | 274° |
| 2026-05-04 18:45 | 60.14414 | 10.61750 | 13169 ft | 302 kts | 274° |
| 2026-05-04 18:45 | 60.14560 | 10.57593 | 14081 ft | 304 kts | 273° |
| 2026-05-04 18:45 | 60.14705 | 10.53343 | 14975 ft | 306 kts | 273° |
| 2026-05-04 18:45 | 60.14846 | 10.49087 | 15908 ft | 306 kts | 273° |
| 2026-05-04 18:46 | 60.14984 | 10.44812 | 16835 ft | 308 kts | 272° |
| 2026-05-04 18:46 | 60.15121 | 10.40514 | 17799 ft | 310 kts | 272° |
| 2026-05-04 18:46 | 60.15258 | 10.36177 | 18645 ft | 312 kts | 272° |
| 2026-05-04 18:46 | 60.15394 | 10.31786 | 19283 ft | 318 kts | 272° |
| 2026-05-04 18:47 | 60.15531 | 10.27348 | 19611 ft | 319 kts | 272° |
| 2026-05-04 18:47 | 60.15665 | 10.23016 | 19672 ft | 303 kts | 272° |
| 2026-05-04 18:47 | 60.15790 | 10.18971 | 19674 ft | 285 kts | 272° |
| 2026-05-04 18:47 | 60.15907 | 10.15121 | 19678 ft | 267 kts | 272° |
| 2026-05-04 18:48 | 60.16014 | 10.11526 | 19682 ft | 250 kts | 272° |
| 2026-05-04 18:48 | 60.16114 | 10.08144 | 19677 ft | 235 kts | 272° |
| 2026-05-04 18:48 | 60.16206 | 10.04961 | 19679 ft | 225 kts | 272° |
| 2026-05-04 18:48 | 60.16296 | 10.01832 | 19694 ft | 224 kts | 272° |
| 2026-05-04 18:49 | 60.16384 | 9.98705 | 19685 ft | 224 kts | 272° |
| 2026-05-04 18:49 | 60.16472 | 9.95585 | 19684 ft | 224 kts | 272° |
| 2026-05-04 18:49 | 60.16559 | 9.92468 | 19690 ft | 224 kts | 272° |
| 2026-05-04 18:49 | 60.16645 | 9.89345 | 19691 ft | 224 kts | 272° |
| 2026-05-04 18:50 | 60.16731 | 9.86226 | 19687 ft | 224 kts | 272° |
| 2026-05-04 18:50 | 60.16815 | 9.83105 | 19688 ft | 224 kts | 272° |
| 2026-05-04 18:50 | 60.16899 | 9.80030 | 19691 ft | 224 kts | 272° |
| 2026-05-04 18:50 | 60.16984 | 9.76905 | 19689 ft | 224 kts | 272° |
| 2026-05-04 18:51 | 60.17068 | 9.73785 | 19701 ft | 224 kts | 272° |
| 2026-05-04 18:51 | 60.17152 | 9.70668 | 19688 ft | 224 kts | 272° |
| 2026-05-04 18:51 | 60.17233 | 9.67541 | 19694 ft | 224 kts | 272° |